sensor_id;sensor_type;location;lat;lon;timestamp;P1;durP1;ratioP1;P2;durP2;ratioP2
11823;SDS011;5969;50.780;7.726;2023-03-05T00:01:36;7.72;;;3.60;;
11823;SDS011;5969;50.780;7.726;2023-03-05T00:04:04;9.63;;;3.67;;
11823;SDS011;5969;50.780;7.726;2023-03-05T00:06:35;9.00;;;2.95;;
11823;SDS011;5969;50.780;7.726;2023-03-05T00:09:03;5.82;;;3.08;;
11823;SDS011;5969;50.780;7.726;2023-03-05T00:11:30;6.32;;;3.40;;
11823;SDS011;5969;50.780;7.726;2023-03-05T00:13:58;8.18;;;3.80;;
11823;SDS011;5969;50.780;7.726;2023-03-05T00:16:27;6.07;;;3.42;;
11823;SDS011;5969;50.780;7.726;2023-03-05T00:18:55;7.13;;;3.33;;
11823;SDS011;5969;50.780;7.726;2023-03-05T00:21:24;6.15;;;3.45;;
11823;SDS011;5969;50.780;7.726;2023-03-05T00:23:52;6.40;;;3.60;;
11823;SDS011;5969;50.780;7.726;2023-03-05T00:26:21;7.35;;;3.65;;
11823;SDS011;5969;50.780;7.726;2023-03-05T00:28:49;7.32;;;4.07;;
11823;SDS011;5969;50.780;7.726;2023-03-05T00:31:17;6.05;;;3.30;;
11823;SDS011;5969;50.780;7.726;2023-03-05T00:33:45;5.22;;;3.47;;
11823;SDS011;5969;50.780;7.726;2023-03-05T00:36:15;7.78;;;3.95;;
11823;SDS011;5969;50.780;7.726;2023-03-05T00:38:41;5.05;;;3.00;;
11823;SDS011;5969;50.780;7.726;2023-03-05T00:41:08;7.15;;;3.33;;
11823;SDS011;5969;50.780;7.726;2023-03-05T00:43:36;10.70;;;3.30;;
11823;SDS011;5969;50.780;7.726;2023-03-05T00:46:03;5.82;;;2.88;;
11823;SDS011;5969;50.780;7.726;2023-03-05T00:48:30;7.43;;;3.30;;
11823;SDS011;5969;50.780;7.726;2023-03-05T00:50:57;5.05;;;2.72;;
11823;SDS011;5969;50.780;7.726;2023-03-05T00:53:24;7.28;;;2.97;;
11823;SDS011;5969;50.780;7.726;2023-03-05T00:55:50;5.05;;;2.72;;
11823;SDS011;5969;50.780;7.726;2023-03-05T00:58:17;5.75;;;2.83;;
11823;SDS011;5969;50.780;7.726;2023-03-05T01:00:45;4.22;;;2.42;;
11823;SDS011;5969;50.780;7.726;2023-03-05T01:03:14;6.70;;;2.58;;
11823;SDS011;5969;50.780;7.726;2023-03-05T01:05:41;9.65;;;2.30;;
11823;SDS011;5969;50.780;7.726;2023-03-05T01:08:08;6.22;;;2.60;;
11823;SDS011;5969;50.780;7.726;2023-03-05T01:10:35;6.50;;;2.42;;
11823;SDS011;5969;50.780;7.726;2023-03-05T01:13:02;4.60;;;2.47;;
11823;SDS011;5969;50.780;7.726;2023-03-05T01:15:29;5.82;;;2.80;;
11823;SDS011;5969;50.780;7.726;2023-03-05T01:17:57;3.90;;;2.20;;
11823;SDS011;5969;50.780;7.726;2023-03-05T01:20:23;6.15;;;2.08;;
11823;SDS011;5969;50.780;7.726;2023-03-05T01:22:50;7.78;;;2.17;;
11823;SDS011;5969;50.780;7.726;2023-03-05T01:25:18;7.70;;;2.42;;
11823;SDS011;5969;50.780;7.726;2023-03-05T01:27:45;7.60;;;2.60;;
11823;SDS011;5969;50.780;7.726;2023-03-05T01:30:13;5.88;;;2.40;;
11823;SDS011;5969;50.780;7.726;2023-03-05T01:32:40;4.57;;;2.30;;
11823;SDS011;5969;50.780;7.726;2023-03-05T01:35:09;5.00;;;2.05;;
11823;SDS011;5969;50.780;7.726;2023-03-05T01:37:41;6.28;;;2.40;;
11823;SDS011;5969;50.780;7.726;2023-03-05T01:40:09;5.85;;;2.28;;
11823;SDS011;5969;50.780;7.726;2023-03-05T01:42:37;4.97;;;2.40;;
11823;SDS011;5969;50.780;7.726;2023-03-05T01:45:04;5.18;;;2.13;;
11823;SDS011;5969;50.780;7.726;2023-03-05T01:47:34;4.43;;;2.22;;
11823;SDS011;5969;50.780;7.726;2023-03-05T01:50:01;4.90;;;1.80;;
11823;SDS011;5969;50.780;7.726;2023-03-05T01:52:29;3.92;;;2.03;;
11823;SDS011;5969;50.780;7.726;2023-03-05T01:55:01;7.72;;;2.38;;
11823;SDS011;5969;50.780;7.726;2023-03-05T01:57:30;5.15;;;2.17;;
11823;SDS011;5969;50.780;7.726;2023-03-05T02:00:02;6.40;;;2.22;;
11823;SDS011;5969;50.780;7.726;2023-03-05T02:05:21;5.50;;;2.38;;
11823;SDS011;5969;50.780;7.726;2023-03-05T02:10:23;3.28;;;1.88;;
11823;SDS011;5969;50.780;7.726;2023-03-05T02:12:52;4.72;;;1.90;;
11823;SDS011;5969;50.780;7.726;2023-03-05T02:15:21;5.55;;;1.90;;
11823;SDS011;5969;50.780;7.726;2023-03-05T02:17:48;5.18;;;1.90;;
11823;SDS011;5969;50.780;7.726;2023-03-05T02:20:15;4.07;;;1.85;;
11823;SDS011;5969;50.780;7.726;2023-03-05T02:22:45;4.05;;;1.58;;
11823;SDS011;5969;50.780;7.726;2023-03-05T02:25:12;5.05;;;1.70;;
11823;SDS011;5969;50.780;7.726;2023-03-05T02:27:41;3.15;;;1.70;;
11823;SDS011;5969;50.780;7.726;2023-03-05T02:30:11;4.35;;;1.95;;
11823;SDS011;5969;50.780;7.726;2023-03-05T02:32:38;3.88;;;1.63;;
11823;SDS011;5969;50.780;7.726;2023-03-05T02:35:05;3.38;;;1.73;;
11823;SDS011;5969;50.780;7.726;2023-03-05T02:37:32;4.20;;;1.77;;
11823;SDS011;5969;50.780;7.726;2023-03-05T02:40:01;3.85;;;2.05;;
11823;SDS011;5969;50.780;7.726;2023-03-05T02:42:28;5.35;;;1.98;;
11823;SDS011;5969;50.780;7.726;2023-03-05T02:44:57;4.53;;;1.70;;
11823;SDS011;5969;50.780;7.726;2023-03-05T02:47:24;4.18;;;1.73;;
11823;SDS011;5969;50.780;7.726;2023-03-05T02:49:51;4.35;;;2.08;;
11823;SDS011;5969;50.780;7.726;2023-03-05T02:52:18;3.05;;;1.73;;
11823;SDS011;5969;50.780;7.726;2023-03-05T02:54:47;4.32;;;2.03;;
11823;SDS011;5969;50.780;7.726;2023-03-05T02:57:15;3.67;;;1.77;;
11823;SDS011;5969;50.780;7.726;2023-03-05T02:59:42;4.75;;;1.73;;
11823;SDS011;5969;50.780;7.726;2023-03-05T03:02:09;2.72;;;1.67;;
11823;SDS011;5969;50.780;7.726;2023-03-05T03:04:36;7.95;;;2.20;;
11823;SDS011;5969;50.780;7.726;2023-03-05T03:07:03;2.95;;;1.88;;
11823;SDS011;5969;50.780;7.726;2023-03-05T03:09:30;6.07;;;1.90;;
11823;SDS011;5969;50.780;7.726;2023-03-05T03:11:58;5.55;;;1.85;;
11823;SDS011;5969;50.780;7.726;2023-03-05T03:14:26;5.75;;;2.08;;
11823;SDS011;5969;50.780;7.726;2023-03-05T03:16:56;6.72;;;2.42;;
11823;SDS011;5969;50.780;7.726;2023-03-05T03:19:23;4.40;;;2.13;;
11823;SDS011;5969;50.780;7.726;2023-03-05T03:21:50;6.60;;;2.40;;
11823;SDS011;5969;50.780;7.726;2023-03-05T03:24:19;4.63;;;2.10;;
11823;SDS011;5969;50.780;7.726;2023-03-05T03:26:45;5.63;;;1.92;;
11823;SDS011;5969;50.780;7.726;2023-03-05T03:29:13;6.70;;;2.55;;
11823;SDS011;5969;50.780;7.726;2023-03-05T03:31:42;5.75;;;2.33;;
11823;SDS011;5969;50.780;7.726;2023-03-05T03:34:09;7.78;;;3.30;;
11823;SDS011;5969;50.780;7.726;2023-03-05T03:36:36;7.40;;;3.63;;
11823;SDS011;5969;50.780;7.726;2023-03-05T03:39:03;7.25;;;3.97;;
11823;SDS011;5969;50.780;7.726;2023-03-05T03:41:30;6.30;;;3.60;;
11823;SDS011;5969;50.780;7.726;2023-03-05T03:43:57;7.68;;;4.88;;
11823;SDS011;5969;50.780;7.726;2023-03-05T03:46:25;11.15;;;4.10;;
11823;SDS011;5969;50.780;7.726;2023-03-05T03:48:53;10.98;;;5.82;;
11823;SDS011;5969;50.780;7.726;2023-03-05T03:51:19;11.40;;;6.22;;
11823;SDS011;5969;50.780;7.726;2023-03-05T03:53:46;10.23;;;5.82;;
11823;SDS011;5969;50.780;7.726;2023-03-05T03:56:13;13.98;;;7.15;;
11823;SDS011;5969;50.780;7.726;2023-03-05T03:58:39;14.52;;;8.57;;
11823;SDS011;5969;50.780;7.726;2023-03-05T04:01:06;15.73;;;8.18;;
11823;SDS011;5969;50.780;7.726;2023-03-05T04:03:33;15.02;;;8.63;;
11823;SDS011;5969;50.780;7.726;2023-03-05T04:06:01;12.18;;;8.00;;
11823;SDS011;5969;50.780;7.726;2023-03-05T04:08:28;13.77;;;8.55;;
11823;SDS011;5969;50.780;7.726;2023-03-05T04:10:55;16.00;;;8.10;;
11823;SDS011;5969;50.780;7.726;2023-03-05T04:13:22;11.20;;;7.97;;
11823;SDS011;5969;50.780;7.726;2023-03-05T04:15:48;16.67;;;8.07;;
11823;SDS011;5969;50.780;7.726;2023-03-05T04:18:15;17.33;;;8.32;;
11823;SDS011;5969;50.780;7.726;2023-03-05T04:20:42;12.80;;;8.07;;
11823;SDS011;5969;50.780;7.726;2023-03-05T04:23:11;17.98;;;8.18;;
11823;SDS011;5969;50.780;7.726;2023-03-05T04:25:38;10.80;;;7.15;;
11823;SDS011;5969;50.780;7.726;2023-03-05T04:28:05;16.45;;;8.27;;
11823;SDS011;5969;50.780;7.726;2023-03-05T04:30:32;11.07;;;7.57;;
11823;SDS011;5969;50.780;7.726;2023-03-05T04:32:58;11.75;;;7.57;;
11823;SDS011;5969;50.780;7.726;2023-03-05T04:35:25;13.75;;;7.38;;
11823;SDS011;5969;50.780;7.726;2023-03-05T04:37:52;12.93;;;8.05;;
11823;SDS011;5969;50.780;7.726;2023-03-05T04:40:21;15.77;;;7.80;;
11823;SDS011;5969;50.780;7.726;2023-03-05T04:42:48;16.15;;;7.75;;
11823;SDS011;5969;50.780;7.726;2023-03-05T04:45:15;10.43;;;7.40;;
11823;SDS011;5969;50.780;7.726;2023-03-05T04:47:42;12.10;;;7.88;;
11823;SDS011;5969;50.780;7.726;2023-03-05T04:50:09;11.63;;;7.97;;
11823;SDS011;5969;50.780;7.726;2023-03-05T04:52:37;14.40;;;8.07;;
11823;SDS011;5969;50.780;7.726;2023-03-05T04:55:05;10.40;;;7.28;;
11823;SDS011;5969;50.780;7.726;2023-03-05T04:57:35;13.10;;;8.15;;
11823;SDS011;5969;50.780;7.726;2023-03-05T05:00:02;19.95;;;9.07;;
11823;SDS011;5969;50.780;7.726;2023-03-05T05:02:32;14.40;;;8.38;;
11823;SDS011;5969;50.780;7.726;2023-03-05T05:04:58;16.05;;;8.35;;
11823;SDS011;5969;50.780;7.726;2023-03-05T05:07:25;13.95;;;8.43;;
11823;SDS011;5969;50.780;7.726;2023-03-05T05:09:53;12.20;;;8.38;;
11823;SDS011;5969;50.780;7.726;2023-03-05T05:12:20;15.60;;;8.68;;
11823;SDS011;5969;50.780;7.726;2023-03-05T05:14:48;12.77;;;8.25;;
11823;SDS011;5969;50.780;7.726;2023-03-05T05:17:15;12.27;;;7.68;;
11823;SDS011;5969;50.780;7.726;2023-03-05T05:19:42;11.50;;;7.75;;
11823;SDS011;5969;50.780;7.726;2023-03-05T05:22:08;12.50;;;7.88;;
11823;SDS011;5969;50.780;7.726;2023-03-05T05:24:35;13.88;;;8.65;;
11823;SDS011;5969;50.780;7.726;2023-03-05T05:27:02;15.75;;;8.55;;
11823;SDS011;5969;50.780;7.726;2023-03-05T05:29:28;14.48;;;8.35;;
11823;SDS011;5969;50.780;7.726;2023-03-05T05:31:57;15.40;;;8.57;;
11823;SDS011;5969;50.780;7.726;2023-03-05T05:34:23;12.00;;;7.68;;
11823;SDS011;5969;50.780;7.726;2023-03-05T05:36:51;11.02;;;7.30;;
11823;SDS011;5969;50.780;7.726;2023-03-05T05:39:18;13.15;;;7.93;;
11823;SDS011;5969;50.780;7.726;2023-03-05T05:41:45;13.27;;;7.30;;
11823;SDS011;5969;50.780;7.726;2023-03-05T05:44:15;14.77;;;8.43;;
11823;SDS011;5969;50.780;7.726;2023-03-05T05:46:41;13.40;;;7.60;;
11823;SDS011;5969;50.780;7.726;2023-03-05T05:49:10;14.02;;;8.57;;
11823;SDS011;5969;50.780;7.726;2023-03-05T05:51:36;14.70;;;8.38;;
11823;SDS011;5969;50.780;7.726;2023-03-05T05:54:03;16.58;;;8.63;;
11823;SDS011;5969;50.780;7.726;2023-03-05T05:56:30;14.82;;;8.70;;
11823;SDS011;5969;50.780;7.726;2023-03-05T05:58:58;17.55;;;9.02;;
11823;SDS011;5969;50.780;7.726;2023-03-05T06:01:25;15.45;;;8.68;;
11823;SDS011;5969;50.780;7.726;2023-03-05T06:03:54;14.70;;;9.45;;
11823;SDS011;5969;50.780;7.726;2023-03-05T06:06:23;14.57;;;8.90;;
11823;SDS011;5969;50.780;7.726;2023-03-05T06:08:51;17.48;;;10.25;;
11823;SDS011;5969;50.780;7.726;2023-03-05T06:11:18;18.30;;;9.85;;
11823;SDS011;5969;50.780;7.726;2023-03-05T06:13:46;19.27;;;9.43;;
11823;SDS011;5969;50.780;7.726;2023-03-05T06:16:14;20.88;;;10.27;;
11823;SDS011;5969;50.780;7.726;2023-03-05T06:18:43;19.65;;;10.13;;
11823;SDS011;5969;50.780;7.726;2023-03-05T06:21:10;17.17;;;10.57;;
11823;SDS011;5969;50.780;7.726;2023-03-05T06:23:40;15.63;;;9.45;;
11823;SDS011;5969;50.780;7.726;2023-03-05T06:26:07;16.92;;;10.43;;
11823;SDS011;5969;50.780;7.726;2023-03-05T06:28:36;18.27;;;9.32;;
11823;SDS011;5969;50.780;7.726;2023-03-05T06:31:04;15.40;;;8.57;;
11823;SDS011;5969;50.780;7.726;2023-03-05T06:33:32;16.77;;;8.45;;
11823;SDS011;5969;50.780;7.726;2023-03-05T06:36:01;15.10;;;8.35;;
11823;SDS011;5969;50.780;7.726;2023-03-05T06:38:28;14.75;;;8.57;;
11823;SDS011;5969;50.780;7.726;2023-03-05T06:40:58;17.50;;;9.13;;
11823;SDS011;5969;50.780;7.726;2023-03-05T06:43:25;16.75;;;8.88;;
11823;SDS011;5969;50.780;7.726;2023-03-05T06:46:00;12.25;;;8.70;;
11823;SDS011;5969;50.780;7.726;2023-03-05T06:48:27;16.30;;;9.05;;
11823;SDS011;5969;50.780;7.726;2023-03-05T06:50:54;14.18;;;8.23;;
11823;SDS011;5969;50.780;7.726;2023-03-05T06:53:23;16.85;;;8.60;;
11823;SDS011;5969;50.780;7.726;2023-03-05T06:55:50;18.05;;;9.13;;
11823;SDS011;5969;50.780;7.726;2023-03-05T06:58:18;19.77;;;12.65;;
11823;SDS011;5969;50.780;7.726;2023-03-05T07:00:45;17.30;;;10.45;;
11823;SDS011;5969;50.780;7.726;2023-03-05T07:03:12;19.42;;;14.50;;
11823;SDS011;5969;50.780;7.726;2023-03-05T07:05:39;15.48;;;11.25;;
11823;SDS011;5969;50.780;7.726;2023-03-05T07:08:07;11.63;;;9.13;;
11823;SDS011;5969;50.780;7.726;2023-03-05T07:10:36;11.52;;;7.35;;
11823;SDS011;5969;50.780;7.726;2023-03-05T07:13:04;21.65;;;12.10;;
11823;SDS011;5969;50.780;7.726;2023-03-05T07:15:32;12.55;;;7.70;;
11823;SDS011;5969;50.780;7.726;2023-03-05T07:17:59;12.82;;;6.38;;
11823;SDS011;5969;50.780;7.726;2023-03-05T07:20:25;10.70;;;7.05;;
11823;SDS011;5969;50.780;7.726;2023-03-05T07:22:52;24.77;;;22.10;;
11823;SDS011;5969;50.780;7.726;2023-03-05T07:25:19;14.52;;;9.43;;
11823;SDS011;5969;50.780;7.726;2023-03-05T07:27:48;17.23;;;13.73;;
11823;SDS011;5969;50.780;7.726;2023-03-05T07:30:15;12.40;;;5.40;;
11823;SDS011;5969;50.780;7.726;2023-03-05T07:32:44;15.55;;;7.45;;
11823;SDS011;5969;50.780;7.726;2023-03-05T07:35:10;9.73;;;6.97;;
11823;SDS011;5969;50.780;7.726;2023-03-05T07:37:37;11.93;;;7.07;;
11823;SDS011;5969;50.780;7.726;2023-03-05T07:40:04;8.70;;;4.95;;
11823;SDS011;5969;50.780;7.726;2023-03-05T07:42:33;15.18;;;9.30;;
11823;SDS011;5969;50.780;7.726;2023-03-05T07:45:00;14.15;;;7.00;;
11823;SDS011;5969;50.780;7.726;2023-03-05T07:47:26;6.97;;;4.10;;
11823;SDS011;5969;50.780;7.726;2023-03-05T07:49:55;10.45;;;6.22;;
11823;SDS011;5969;50.780;7.726;2023-03-05T07:52:22;5.13;;;2.97;;
11823;SDS011;5969;50.780;7.726;2023-03-05T07:54:49;7.63;;;3.75;;
11823;SDS011;5969;50.780;7.726;2023-03-05T07:57:16;8.93;;;6.68;;
11823;SDS011;5969;50.780;7.726;2023-03-05T07:59:42;9.75;;;6.88;;
11823;SDS011;5969;50.780;7.726;2023-03-05T08:02:09;5.50;;;3.63;;
11823;SDS011;5969;50.780;7.726;2023-03-05T08:04:37;5.43;;;3.05;;
11823;SDS011;5969;50.780;7.726;2023-03-05T08:07:05;4.25;;;3.33;;
11823;SDS011;5969;50.780;7.726;2023-03-05T08:09:34;7.05;;;3.42;;
11823;SDS011;5969;50.780;7.726;2023-03-05T08:12:01;8.05;;;3.75;;
11823;SDS011;5969;50.780;7.726;2023-03-05T08:14:27;8.38;;;4.22;;
11823;SDS011;5969;50.780;7.726;2023-03-05T08:16:54;10.60;;;7.40;;
11823;SDS011;5969;50.780;7.726;2023-03-05T08:19:21;7.85;;;4.68;;
11823;SDS011;5969;50.780;7.726;2023-03-05T08:21:48;9.77;;;5.47;;
11823;SDS011;5969;50.780;7.726;2023-03-05T08:24:16;9.25;;;6.00;;
11823;SDS011;5969;50.780;7.726;2023-03-05T08:26:43;10.27;;;5.10;;
11823;SDS011;5969;50.780;7.726;2023-03-05T08:29:09;8.25;;;5.35;;
11823;SDS011;5969;50.780;7.726;2023-03-05T08:31:36;7.07;;;5.20;;
11823;SDS011;5969;50.780;7.726;2023-03-05T08:34:04;6.30;;;4.97;;
11823;SDS011;5969;50.780;7.726;2023-03-05T08:36:31;8.25;;;5.15;;
11823;SDS011;5969;50.780;7.726;2023-03-05T08:38:58;6.55;;;4.30;;
11823;SDS011;5969;50.780;7.726;2023-03-05T08:41:26;7.85;;;3.72;;
11823;SDS011;5969;50.780;7.726;2023-03-05T08:43:53;10.32;;;6.65;;
11823;SDS011;5969;50.780;7.726;2023-03-05T08:46:20;8.00;;;4.57;;
11823;SDS011;5969;50.780;7.726;2023-03-05T08:48:47;5.22;;;2.95;;
11823;SDS011;5969;50.780;7.726;2023-03-05T08:51:14;8.73;;;3.22;;
11823;SDS011;5969;50.780;7.726;2023-03-05T08:53:43;6.15;;;2.72;;
11823;SDS011;5969;50.780;7.726;2023-03-05T08:56:11;12.27;;;3.53;;
11823;SDS011;5969;50.780;7.726;2023-03-05T08:58:40;6.90;;;3.22;;
11823;SDS011;5969;50.780;7.726;2023-03-05T09:01:08;5.20;;;2.97;;
11823;SDS011;5969;50.780;7.726;2023-03-05T09:03:35;6.20;;;2.78;;
11823;SDS011;5969;50.780;7.726;2023-03-05T09:06:03;6.38;;;3.17;;
11823;SDS011;5969;50.780;7.726;2023-03-05T09:08:32;8.48;;;3.17;;
11823;SDS011;5969;50.780;7.726;2023-03-05T09:11:10;4.30;;;2.97;;
11823;SDS011;5969;50.780;7.726;2023-03-05T09:13:39;6.15;;;3.53;;
11823;SDS011;5969;50.780;7.726;2023-03-05T09:16:08;7.00;;;3.50;;
11823;SDS011;5969;50.780;7.726;2023-03-05T09:18:37;7.63;;;3.95;;
11823;SDS011;5969;50.780;7.726;2023-03-05T09:21:04;8.55;;;3.53;;
11823;SDS011;5969;50.780;7.726;2023-03-05T09:23:32;9.50;;;3.25;;
11823;SDS011;5969;50.780;7.726;2023-03-05T09:25:59;4.80;;;3.00;;
11823;SDS011;5969;50.780;7.726;2023-03-05T09:28:26;4.40;;;2.72;;
11823;SDS011;5969;50.780;7.726;2023-03-05T09:30:54;5.93;;;3.90;;
11823;SDS011;5969;50.780;7.726;2023-03-05T09:33:21;4.50;;;2.65;;
11823;SDS011;5969;50.780;7.726;2023-03-05T09:35:48;8.35;;;4.45;;
11823;SDS011;5969;50.780;7.726;2023-03-05T09:38:14;4.78;;;2.67;;
11823;SDS011;5969;50.780;7.726;2023-03-05T09:40:45;6.90;;;2.95;;
11823;SDS011;5969;50.780;7.726;2023-03-05T09:43:20;5.00;;;2.67;;
11823;SDS011;5969;50.780;7.726;2023-03-05T09:46:03;20.98;;;16.60;;
11823;SDS011;5969;50.780;7.726;2023-03-05T09:48:43;3.92;;;3.30;;
11823;SDS011;5969;50.780;7.726;2023-03-05T09:51:20;8.18;;;3.53;;
11823;SDS011;5969;50.780;7.726;2023-03-05T09:53:50;6.55;;;3.38;;
11823;SDS011;5969;50.780;7.726;2023-03-05T09:56:24;5.45;;;3.00;;
11823;SDS011;5969;50.780;7.726;2023-03-05T09:58:54;5.22;;;3.38;;
11823;SDS011;5969;50.780;7.726;2023-03-05T10:01:27;3.75;;;3.03;;
11823;SDS011;5969;50.780;7.726;2023-03-05T10:03:58;4.63;;;3.10;;
11823;SDS011;5969;50.780;7.726;2023-03-05T10:06:29;6.30;;;3.85;;
11823;SDS011;5969;50.780;7.726;2023-03-05T10:09:01;9.25;;;5.22;;
11823;SDS011;5969;50.780;7.726;2023-03-05T10:11:37;7.13;;;3.85;;
11823;SDS011;5969;50.780;7.726;2023-03-05T10:14:10;7.63;;;3.75;;
11823;SDS011;5969;50.780;7.726;2023-03-05T10:19:55;6.82;;;3.60;;
11823;SDS011;5969;50.780;7.726;2023-03-05T10:22:41;7.00;;;3.60;;
11823;SDS011;5969;50.780;7.726;2023-03-05T10:25:22;8.02;;;3.85;;
11823;SDS011;5969;50.780;7.726;2023-03-05T10:27:54;6.47;;;3.38;;
11823;SDS011;5969;50.780;7.726;2023-03-05T10:30:30;11.15;;;6.45;;
11823;SDS011;5969;50.780;7.726;2023-03-05T10:33:19;10.07;;;7.72;;
11823;SDS011;5969;50.780;7.726;2023-03-05T10:38:53;7.30;;;3.67;;
11823;SDS011;5969;50.780;7.726;2023-03-05T10:41:42;5.80;;;3.83;;
11823;SDS011;5969;50.780;7.726;2023-03-05T10:44:18;7.22;;;3.40;;
11823;SDS011;5969;50.780;7.726;2023-03-05T10:46:51;4.97;;;3.53;;
11823;SDS011;5969;50.780;7.726;2023-03-05T10:49:24;8.05;;;4.38;;
11823;SDS011;5969;50.780;7.726;2023-03-05T10:51:54;6.63;;;3.88;;
11823;SDS011;5969;50.780;7.726;2023-03-05T10:54:26;9.90;;;3.85;;
11823;SDS011;5969;50.780;7.726;2023-03-05T10:57:01;5.55;;;3.60;;
11823;SDS011;5969;50.780;7.726;2023-03-05T10:59:30;6.38;;;3.63;;
11823;SDS011;5969;50.780;7.726;2023-03-05T11:02:00;6.60;;;4.20;;
11823;SDS011;5969;50.780;7.726;2023-03-05T11:04:32;7.30;;;4.22;;
11823;SDS011;5969;50.780;7.726;2023-03-05T11:07:04;7.10;;;4.90;;
11823;SDS011;5969;50.780;7.726;2023-03-05T11:09:32;9.07;;;5.05;;
11823;SDS011;5969;50.780;7.726;2023-03-05T11:12:09;7.72;;;5.47;;
11823;SDS011;5969;50.780;7.726;2023-03-05T11:14:39;8.20;;;4.93;;
11823;SDS011;5969;50.780;7.726;2023-03-05T11:17:22;8.60;;;5.45;;
11823;SDS011;5969;50.780;7.726;2023-03-05T11:19:55;10.07;;;5.63;;
11823;SDS011;5969;50.780;7.726;2023-03-05T11:22:23;11.20;;;5.93;;
11823;SDS011;5969;50.780;7.726;2023-03-05T11:25:12;9.13;;;5.90;;
11823;SDS011;5969;50.780;7.726;2023-03-05T11:27:43;10.95;;;6.28;;
11823;SDS011;5969;50.780;7.726;2023-03-05T11:30:17;9.40;;;6.68;;
11823;SDS011;5969;50.780;7.726;2023-03-05T11:32:46;8.95;;;6.28;;
11823;SDS011;5969;50.780;7.726;2023-03-05T11:35:25;10.77;;;7.30;;
11823;SDS011;5969;50.780;7.726;2023-03-05T11:37:58;7.95;;;6.53;;
11823;SDS011;5969;50.780;7.726;2023-03-05T11:40:26;7.95;;;6.43;;
11823;SDS011;5969;50.780;7.726;2023-03-05T11:42:55;9.88;;;6.60;;
11823;SDS011;5969;50.780;7.726;2023-03-05T11:45:25;10.48;;;6.75;;
11823;SDS011;5969;50.780;7.726;2023-03-05T11:47:54;14.43;;;7.55;;
11823;SDS011;5969;50.780;7.726;2023-03-05T11:50:26;10.68;;;6.95;;
11823;SDS011;5969;50.780;7.726;2023-03-05T11:52:56;14.98;;;7.85;;
11823;SDS011;5969;50.780;7.726;2023-03-05T11:55:25;9.73;;;7.47;;
11823;SDS011;5969;50.780;7.726;2023-03-05T11:57:56;12.25;;;7.35;;
11823;SDS011;5969;50.780;7.726;2023-03-05T12:00:30;10.30;;;7.05;;
11823;SDS011;5969;50.780;7.726;2023-03-05T12:03:01;11.23;;;7.25;;
11823;SDS011;5969;50.780;7.726;2023-03-05T12:05:36;10.90;;;6.32;;
11823;SDS011;5969;50.780;7.726;2023-03-05T12:08:10;9.80;;;7.38;;
11823;SDS011;5969;50.780;7.726;2023-03-05T12:10:40;10.07;;;7.03;;
11823;SDS011;5969;50.780;7.726;2023-03-05T12:13:10;10.15;;;7.38;;
11823;SDS011;5969;50.780;7.726;2023-03-05T12:15:43;7.82;;;7.00;;
11823;SDS011;5969;50.780;7.726;2023-03-05T12:18:16;10.70;;;7.32;;
11823;SDS011;5969;50.780;7.726;2023-03-05T12:20:56;8.65;;;7.22;;
11823;SDS011;5969;50.780;7.726;2023-03-05T12:23:31;10.52;;;6.32;;
11823;SDS011;5969;50.780;7.726;2023-03-05T12:26:10;8.27;;;5.88;;
11823;SDS011;5969;50.780;7.726;2023-03-05T12:28:51;7.10;;;6.25;;
11823;SDS011;5969;50.780;7.726;2023-03-05T12:31:36;9.18;;;7.28;;
11823;SDS011;5969;50.780;7.726;2023-03-05T12:37:10;11.15;;;7.95;;
11823;SDS011;5969;50.780;7.726;2023-03-05T12:42:41;10.55;;;8.30;;
11823;SDS011;5969;50.780;7.726;2023-03-05T12:45:29;11.13;;;8.20;;
11823;SDS011;5969;50.780;7.726;2023-03-05T12:51:00;9.85;;;7.43;;
11823;SDS011;5969;50.780;7.726;2023-03-05T12:53:29;10.93;;;8.07;;
11823;SDS011;5969;50.780;7.726;2023-03-05T12:55:57;11.57;;;8.38;;
11823;SDS011;5969;50.780;7.726;2023-03-05T12:58:32;11.25;;;8.38;;
11823;SDS011;5969;50.780;7.726;2023-03-05T13:01:06;11.68;;;8.07;;
11823;SDS011;5969;50.780;7.726;2023-03-05T13:03:42;10.88;;;8.35;;
11823;SDS011;5969;50.780;7.726;2023-03-05T13:06:22;9.73;;;8.35;;
11823;SDS011;5969;50.780;7.726;2023-03-05T13:08:55;12.57;;;8.27;;
11823;SDS011;5969;50.780;7.726;2023-03-05T13:11:27;12.57;;;9.73;;
11823;SDS011;5969;50.780;7.726;2023-03-05T13:13:56;11.60;;;10.02;;
11823;SDS011;5969;50.780;7.726;2023-03-05T13:16:24;11.18;;;9.50;;
11823;SDS011;5969;50.780;7.726;2023-03-05T13:18:53;10.18;;;9.00;;
11823;SDS011;5969;50.780;7.726;2023-03-05T13:21:23;12.65;;;10.30;;
11823;SDS011;5969;50.780;7.726;2023-03-05T13:23:54;13.75;;;10.82;;
11823;SDS011;5969;50.780;7.726;2023-03-05T13:26:23;12.73;;;10.48;;
11823;SDS011;5969;50.780;7.726;2023-03-05T13:29:08;12.40;;;11.18;;
11823;SDS011;5969;50.780;7.726;2023-03-05T13:31:40;12.52;;;10.85;;
11823;SDS011;5969;50.780;7.726;2023-03-05T13:34:10;12.23;;;10.57;;
11823;SDS011;5969;50.780;7.726;2023-03-05T13:36:46;12.10;;;10.80;;
11823;SDS011;5969;50.780;7.726;2023-03-05T13:39:19;13.32;;;10.80;;
11823;SDS011;5969;50.780;7.726;2023-03-05T13:41:55;12.73;;;11.43;;
11823;SDS011;5969;50.780;7.726;2023-03-05T13:44:23;14.35;;;11.25;;
11823;SDS011;5969;50.780;7.726;2023-03-05T13:46:50;15.10;;;12.98;;
11823;SDS011;5969;50.780;7.726;2023-03-05T13:49:18;16.17;;;12.63;;
11823;SDS011;5969;50.780;7.726;2023-03-05T13:51:48;12.98;;;11.75;;
11823;SDS011;5969;50.780;7.726;2023-03-05T13:54:19;13.95;;;12.35;;
11823;SDS011;5969;50.780;7.726;2023-03-05T13:56:51;15.05;;;13.32;;
11823;SDS011;5969;50.780;7.726;2023-03-05T13:59:20;14.98;;;12.68;;
11823;SDS011;5969;50.780;7.726;2023-03-05T14:01:49;16.67;;;13.98;;
11823;SDS011;5969;50.780;7.726;2023-03-05T14:04:18;15.63;;;12.60;;
11823;SDS011;5969;50.780;7.726;2023-03-05T14:06:47;15.32;;;12.95;;
11823;SDS011;5969;50.780;7.726;2023-03-05T14:09:19;14.57;;;12.88;;
11823;SDS011;5969;50.780;7.726;2023-03-05T14:11:53;16.88;;;12.80;;
11823;SDS011;5969;50.780;7.726;2023-03-05T14:14:22;16.83;;;14.15;;
11823;SDS011;5969;50.780;7.726;2023-03-05T14:16:50;14.80;;;13.13;;
11823;SDS011;5969;50.780;7.726;2023-03-05T14:19:31;13.77;;;12.35;;
11823;SDS011;5969;50.780;7.726;2023-03-05T14:22:00;15.48;;;11.73;;
11823;SDS011;5969;50.780;7.726;2023-03-05T14:24:28;12.45;;;11.32;;
11823;SDS011;5969;50.780;7.726;2023-03-05T14:26:56;14.85;;;13.13;;
11823;SDS011;5969;50.780;7.726;2023-03-05T14:29:24;12.88;;;11.55;;
11823;SDS011;5969;50.780;7.726;2023-03-05T14:31:55;14.10;;;12.25;;
11823;SDS011;5969;50.780;7.726;2023-03-05T14:34:25;14.70;;;12.25;;
11823;SDS011;5969;50.780;7.726;2023-03-05T14:36:55;18.42;;;12.73;;
11823;SDS011;5969;50.780;7.726;2023-03-05T14:39:32;13.50;;;12.10;;
11823;SDS011;5969;50.780;7.726;2023-03-05T14:44:52;16.42;;;13.57;;
11823;SDS011;5969;50.780;7.726;2023-03-05T14:47:20;15.25;;;12.77;;
11823;SDS011;5969;50.780;7.726;2023-03-05T14:49:47;13.98;;;12.48;;
11823;SDS011;5969;50.780;7.726;2023-03-05T14:52:14;14.23;;;12.32;;
11823;SDS011;5969;50.780;7.726;2023-03-05T14:54:45;14.80;;;13.35;;
11823;SDS011;5969;50.780;7.726;2023-03-05T14:57:13;17.55;;;13.25;;
11823;SDS011;5969;50.780;7.726;2023-03-05T14:59:42;15.60;;;13.60;;
11823;SDS011;5969;50.780;7.726;2023-03-05T15:02:12;15.60;;;12.85;;
11823;SDS011;5969;50.780;7.726;2023-03-05T15:04:41;15.02;;;13.45;;
11823;SDS011;5969;50.780;7.726;2023-03-05T15:07:10;17.17;;;13.25;;
11823;SDS011;5969;50.780;7.726;2023-03-05T15:09:46;15.45;;;13.13;;
11823;SDS011;5969;50.780;7.726;2023-03-05T15:12:13;14.00;;;12.52;;
11823;SDS011;5969;50.780;7.726;2023-03-05T15:14:41;14.48;;;12.48;;
11823;SDS011;5969;50.780;7.726;2023-03-05T15:17:10;14.20;;;12.20;;
11823;SDS011;5969;50.780;7.726;2023-03-05T15:19:41;12.75;;;11.55;;
11823;SDS011;5969;50.780;7.726;2023-03-05T15:22:08;12.93;;;11.63;;
11823;SDS011;5969;50.780;7.726;2023-03-05T15:24:36;12.70;;;10.85;;
11823;SDS011;5969;50.780;7.726;2023-03-05T15:27:04;13.10;;;11.70;;
11823;SDS011;5969;50.780;7.726;2023-03-05T15:29:31;12.10;;;10.52;;